Time;durP1;ratioP1;P1;durP2;ratioP2;P2;SDS_P1;SDS_P2;PMS_P1;PMS_P2;Temp;Humidity;BMP_temperature;BMP_pressure;BME280_temperature;BME280_humidity;BME280_pressure;Samples;Min_cycle;Max_cycle;Signal;HPM_P1;HPM_P2
2023/12/02 00:02:19;;;;;;;;;;;;;;;-3.17;82.89;98371.13;5021868;28;19929;-73
2023/12/02 00:04:45;;;;;;;;;;;;;;;-3.15;82.87;98370.88;4990515;28;19948;-73
2023/12/02 00:07:11;;;;;;;;;;;;;;;-3.17;82.54;98379.13;5026092;28;19952;-72
2023/12/02 00:09:37;;;;;;;;;;;;;;;-3.16;82.62;98377.25;5024265;28;19933;-72
2023/12/02 00:12:03;;;;;;;;;;;;;;;-3.16;82.30;98380.78;5024528;28;19929;-70
2023/12/02 00:14:29;;;;;;;;;;;;;;;-3.19;82.33;98377.72;5025046;28;19956;-70
2023/12/02 00:16:57;;;;;;;;;;;;;;;-3.18;82.35;98376.66;5024123;28;19933;-70
2023/12/02 00:19:23;;;;;;;;;;;;;;;-3.18;81.92;98380.19;5012120;28;20422;-71
2023/12/02 00:21:50;;;;;;;;;;;;;;;-3.15;81.85;98389.59;5006329;28;19928;-71
2023/12/02 00:24:16;;;;;;;;;;;;;;;-3.26;81.50;98376.97;5023862;28;19960;-72
2023/12/02 00:26:42;;;;;;;;;;;;;;;-3.19;81.32;98389.25;5003348;28;19930;-72
2023/12/02 00:29:09;;;;;;;;;;;;;;;-3.18;81.25;98388.19;5017610;28;19933;-73
2023/12/02 00:31:36;;;;;;;;;;;;;;;-3.19;81.59;98401.78;5025537;28;20399;-71
2023/12/02 00:34:06;;;;;;;;;;;;;;;-3.18;81.80;98400.75;4991048;28;20347;-73
2023/12/02 00:36:32;;;;;;;;;;;;;;;-3.14;81.63;98409.94;5022000;28;20016;-71
2023/12/02 00:38:58;;;;;;;;;;;;;;;-3.13;81.69;98400.88;5024473;28;20036;-70
2023/12/02 00:41:24;;;;;;;;;;;;;;;-3.13;81.15;98398.22;5023069;28;19936;-71
2023/12/02 00:43:50;;;;;;;;;;;;;;;-3.11;80.88;98401.50;4986061;28;19929;-71
2023/12/02 00:46:16;;;;;;;;;;;;;;;-3.08;81.11;98400.25;5023209;28;19970;-70
2023/12/02 00:48:41;;;;;;;;;;;;;;;-3.05;81.01;98397.94;5022586;28;20576;-73
2023/12/02 00:51:09;;;;;;;;;;;;;;;-3.06;80.08;98400.81;5007292;28;19929;-71
2023/12/02 00:53:35;;;;;;;;;;;;;;;-3.08;79.67;98408.25;5022154;28;20494;-71
2023/12/02 00:56:01;;;;;;;;;;;;;;;-3.09;79.90;98410.13;5022428;28;19944;-73
2023/12/02 00:58:26;;;;;;;;;;;;;;;-3.11;79.80;98414.88;5005128;28;20451;-72
2023/12/02 01:00:52;;;;;;;;;;;;;;;-3.15;79.25;98401.13;5022725;28;19975;-72
2023/12/02 01:03:18;;;;;;;;;;;;;;;-3.14;79.01;98408.09;5038896;28;19960;-71
2023/12/02 01:05:44;;;;;;;;;;;;;;;-3.12;79.03;98410.56;4990146;28;19995;-71
2023/12/02 01:08:12;;;;;;;;;;;;;;;-3.13;78.93;98404.41;5023923;28;19929;-71
2023/12/02 01:10:38;;;;;;;;;;;;;;;-3.10;79.36;98396.97;5013496;28;19934;-71
2023/12/02 01:13:04;;;;;;;;;;;;;;;-3.13;79.02;98393.69;5015672;28;20491;-71
2023/12/02 01:15:29;;;;;;;;;;;;;;;-3.19;78.76;98405.28;5023077;28;19940;-71
2023/12/02 01:17:55;;;;;;;;;;;;;;;-3.23;79.23;98398.72;5023164;28;19929;-71
2023/12/02 01:20:21;;;;;;;;;;;;;;;-3.19;78.92;98407.13;5022265;28;20070;-71
2023/12/02 01:22:47;;;;;;;;;;;;;;;-3.21;78.76;98403.84;5006257;28;19940;-71
2023/12/02 01:25:14;;;;;;;;;;;;;;;-3.35;79.19;98395.13;5022336;28;19952;-73
2023/12/02 01:27:40;;;;;;;;;;;;;;;-3.27;79.28;98408.22;5022650;28;19979;-73
2023/12/02 01:30:07;;;;;;;;;;;;;;;-3.27;79.11;98413.56;5004805;28;20428;-73
2023/12/02 01:32:32;;;;;;;;;;;;;;;-3.31;78.75;98417.72;5021893;28;20482;-73
2023/12/02 01:34:58;;;;;;;;;;;;;;;-3.28;79.44;98414.59;5005247;28;20393;-73
2023/12/02 01:37:25;;;;;;;;;;;;;;;-3.27;79.49;98408.22;5021977;28;19956;-73
2023/12/02 01:39:51;;;;;;;;;;;;;;;-3.26;79.42;98412.53;5039003;28;19956;-71
2023/12/02 01:42:19;;;;;;;;;;;;;;;-3.26;79.59;98414.41;5004221;28;19929;-72
2023/12/02 01:44:44;;;;;;;;;;;;;;;-3.23;80.13;98412.09;4984537;28;19929;-71
2023/12/02 01:47:10;;;;;;;;;;;;;;;-3.22;80.05;98404.91;4993123;28;19975;-71
2023/12/02 01:49:36;;;;;;;;;;;;;;;-3.20;80.54;98418.88;5005564;28;20397;-72
2023/12/02 01:52:02;;;;;;;;;;;;;;;-3.15;80.70;98419.00;5022642;28;19936;-73
2023/12/02 01:54:29;;;;;;;;;;;;;;;-3.15;80.43;98417.16;5037745;28;19952;-72
2023/12/02 01:56:55;;;;;;;;;;;;;;;-3.15;80.23;98421.69;5023169;28;19929;-72
2023/12/02 01:59:30;;;;;;;;;;;;;;;-3.13;80.37;98424.97;5022226;28;20408;-72
2023/12/02 02:02:00;;;;;;;;;;;;;;;-3.10;80.14;98424.53;5004460;28;19999;-72
2023/12/02 02:04:26;;;;;;;;;;;;;;;-3.12;80.28;98431.97;5020728;28;20285;-72
2023/12/02 02:06:52;;;;;;;;;;;;;;;-3.15;79.93;98433.22;5020005;28;19929;-72
2023/12/02 02:09:18;;;;;;;;;;;;;;;-3.17;79.74;98431.78;5020505;28;20650;-73
2023/12/02 02:11:46;;;;;;;;;;;;;;;-3.15;79.84;98432.38;5021143;28;19940;-72
2023/12/02 02:14:13;;;;;;;;;;;;;;;-3.17;79.82;98431.78;5028639;28;19929;-73
2023/12/02 02:16:40;;;;;;;;;;;;;;;-3.18;79.75;98425.63;5004032;28;19929;-72
2023/12/02 02:19:07;;;;;;;;;;;;;;;-3.18;79.56;98433.66;5021384;28;19936;-72
2023/12/02 02:21:35;;;;;;;;;;;;;;;-3.16;79.36;98423.56;5018973;28;19972;-73
2023/12/02 02:24:01;;;;;;;;;;;;;;;-3.20;78.89;98425.03;5022441;28;20024;-71
2023/12/02 02:26:26;;;;;;;;;;;;;;;-3.26;78.96;98433.13;5035990;28;20489;-71
2023/12/02 02:28:52;;;;;;;;;;;;;;;-3.28;79.44;98430.66;4984846;28;20290;-71
2023/12/02 02:31:18;;;;;;;;;;;;;;;-3.26;79.50;98435.78;5006997;28;20408;-72
2023/12/02 02:33:44;;;;;;;;;;;;;;;-3.22;79.66;98432.44;5020681;28;19929;-70
2023/12/02 02:36:11;;;;;;;;;;;;;;;-3.22;79.60;98432.44;5019920;28;19975;-71
2023/12/02 02:38:38;;;;;;;;;;;;;;;-3.21;79.71;98438.63;5017562;28;19933;-70
2023/12/02 02:41:04;;;;;;;;;;;;;;;-3.22;79.87;98445.00;5018109;28;19928;-71
2023/12/02 02:43:30;;;;;;;;;;;;;;;-3.22;79.82;98442.34;5021300;28;20028;-71
2023/12/02 02:45:56;;;;;;;;;;;;;;;-3.22;79.73;98445.81;5021018;28;19938;-71
2023/12/02 02:48:22;;;;;;;;;;;;;;;-3.20;80.30;98445.59;5021295;28;20376;-71
2023/12/02 02:50:49;;;;;;;;;;;;;;;-3.19;79.59;98445.41;5021091;28;19929;-73
2023/12/02 02:53:15;;;;;;;;;;;;;;;-3.20;78.99;98456.28;5007797;28;19991;-73
2023/12/02 02:55:42;;;;;;;;;;;;;;;-3.20;79.48;98462.47;5021071;28;19929;-73
2023/12/02 02:58:08;;;;;;;;;;;;;;;-3.21;79.37;98470.72;5019948;28;19956;-72
2023/12/02 03:00:34;;;;;;;;;;;;;;;-3.20;79.33;98470.50;5001814;28;19929;-73
2023/12/02 03:03:00;;;;;;;;;;;;;;;-3.17;79.21;98475.41;5019950;28;19936;-73
2023/12/02 03:05:26;;;;;;;;;;;;;;;-3.13;79.58;98476.59;5021435;28;19933;-73
2023/12/02 03:07:52;;;;;;;;;;;;;;;-3.13;79.47;98473.94;5018924;28;19929;-73
2023/12/02 03:10:17;;;;;;;;;;;;;;;-3.18;79.04;98479.13;5020027;28;20003;-73
2023/12/02 03:12:45;;;;;;;;;;;;;;;-3.19;79.08;98476.66;5021426;28;19929;-73
2023/12/02 03:15:12;;;;;;;;;;;;;;;-3.21;79.12;98473.38;5019543;28;20024;-71
2023/12/02 03:17:37;;;;;;;;;;;;;;;-3.25;78.59;98475.66;5021482;28;19936;-71
2023/12/02 03:20:06;;;;;;;;;;;;;;;-3.32;78.72;98467.69;4983517;28;20329;-70
2023/12/02 03:22:32;;;;;;;;;;;;;;;-3.37;78.73;98475.53;4983616;28;19933;-70
2023/12/02 03:24:58;;;;;;;;;;;;;;;-3.38;79.03;98468.56;5021575;28;20157;-70
2023/12/02 03:27:23;;;;;;;;;;;;;;;-3.44;78.81;98483.59;5021408;28;19929;-70
2023/12/02 03:29:51;;;;;;;;;;;;;;;-3.43;79.36;98489.78;5021489;28;19928;-70
2023/12/02 03:32:16;;;;;;;;;;;;;;;-3.41;79.50;98493.06;5021702;28;19936;-72
2023/12/02 03:34:42;;;;;;;;;;;;;;;-3.36;79.72;98489.72;5022563;28;20344;-73
2023/12/02 03:37:08;;;;;;;;;;;;;;;-3.30;79.58;98504.91;5025397;28;20247;-72
2023/12/02 03:39:34;;;;;;;;;;;;;;;-3.34;79.07;98499.16;5040400;28;19936;-72
2023/12/02 03:42:00;;;;;;;;;;;;;;;-3.33;79.46;98510.69;5024782;28;19937;-74
2023/12/02 03:44:26;;;;;;;;;;;;;;;-3.32;79.50;98501.63;5023368;28;19933;-70
2023/12/02 03:46:53;;;;;;;;;;;;;;;-3.35;79.45;98497.53;5006754;28;20360;-71
2023/12/02 03:49:19;;;;;;;;;;;;;;;-3.34;79.45;98498.38;5023898;28;19929;-70
2023/12/02 03:51:45;;;;;;;;;;;;;;;-3.35;79.04;98499.41;5020915;28;19935;-71
2023/12/02 03:54:11;;;;;;;;;;;;;;;-3.40;78.90;98502.72;5023415;28;20145;-71
2023/12/02 03:56:39;;;;;;;;;;;;;;;-3.38;79.03;98503.31;5023955;28;19929;-72
2023/12/02 03:59:04;;;;;;;;;;;;;;;-3.39;79.06;98517.72;5006739;28;19935;-73
2023/12/02 04:01:31;;;;;;;;;;;;;;;-3.41;78.93;98519.78;4988972;28;19930;-73
2023/12/02 04:03:58;;;;;;;;;;;;;;;-3.41;79.19;98525.13;5034526;28;20418;-72
2023/12/02 04:06:24;;;;;;;;;;;;;;;-3.46;79.33;98523.09;5024807;28;19929;-72
2023/12/02 04:08:50;;;;;;;;;;;;;;;-3.56;79.97;98531.59;5007063;28;19936;-72
2023/12/02 04:11:16;;;;;;;;;;;;;;;-3.66;80.83;98530.41;5024537;28;19972;-71
2023/12/02 04:13:42;;;;;;;;;;;;;;;-3.71;81.23;98528.38;5025195;28;19961;-73
2023/12/02 04:16:08;;;;;;;;;;;;;;;-3.75;81.54;98525.31;5022461;28;19943;-72
2023/12/02 04:18:34;;;;;;;;;;;;;;;-3.81;81.75;98526.16;5006712;28;19929;-70
2023/12/02 04:21:04;;;;;;;;;;;;;;;-3.92;82.12;98519.59;5021680;28;19959;-71
2023/12/02 04:23:32;;;;;;;;;;;;;;;-3.90;82.11;98538.94;5009224;28;19970;-72
2023/12/02 04:25:58;;;;;;;;;;;;;;;-3.92;82.31;98540.97;5025835;28;19929;-72
2023/12/02 04:28:24;;;;;;;;;;;;;;;-3.97;82.23;98545.34;5024053;28;19935;-72
2023/12/02 04:30:50;;;;;;;;;;;;;;;-4.02;82.49;98549.44;5022965;28;19956;-70
2023/12/02 04:33:15;;;;;;;;;;;;;;;-4.05;82.48;98557.06;5021291;28;20461;-70
2023/12/02 04:35:41;;;;;;;;;;;;;;;-4.14;82.47;98557.28;5022228;28;19932;-71
2023/12/02 04:38:09;;;;;;;;;;;;;;;-4.13;82.83;98555.44;5005684;28;19929;-70
2023/12/02 04:40:35;;;;;;;;;;;;;;;-4.16;82.74;98553.16;5022495;28;19951;-71
2023/12/02 04:43:00;;;;;;;;;;;;;;;-4.33;82.84;98545.59;5006758;28;19975;-70
2023/12/02 04:45:26;;;;;;;;;;;;;;;-4.25;83.12;98576.59;5021600;28;19983;-71
2023/12/02 04:47:52;;;;;;;;;;;;;;;-4.23;83.11;98574.53;5020858;28;19929;-70
2023/12/02 04:50:18;;;;;;;;;;;;;;;-4.13;83.30;98574.13;5022695;28;19935;-70
2023/12/02 04:52:44;;;;;;;;;;;;;;;-4.11;83.13;98576.56;5022219;28;19975;-70
2023/12/02 04:55:12;;;;;;;;;;;;;;;-4.06;83.21;98576.75;5004985;28;20704;-70
2023/12/02 04:57:38;;;;;;;;;;;;;;;-4.08;82.74;98576.16;5023011;28;20419;-70
2023/12/02 05:00:13;;;;;;;;;;;;;;;-4.11;82.70;98581.91;5024006;28;19928;-70
2023/12/02 05:02:40;;;;;;;;;;;;;;;-4.16;83.03;98582.53;4988784;28;19960;-70
2023/12/02 05:05:07;;;;;;;;;;;;;;;-4.16;83.35;98582.53;5016908;28;19995;-71
2023/12/02 05:07:33;;;;;;;;;;;;;;;-4.20;83.13;98590.16;5019064;28;19936;-70
2023/12/02 05:09:59;;;;;;;;;;;;;;;-4.22;83.46;98596.72;5021079;28;19937;-71
2023/12/02 05:12:27;;;;;;;;;;;;;;;-4.22;83.53;98594.88;5022074;28;20427;-70
2023/12/02 05:14:53;;;;;;;;;;;;;;;-4.22;83.47;98602.88;5020701;28;19929;-70
2023/12/02 05:17:18;;;;;;;;;;;;;;;-4.15;83.50;98601.03;5021350;28;19929;-70
2023/12/02 05:19:44;;;;;;;;;;;;;;;-4.11;83.47;98598.78;5017956;28;19936;-70
2023/12/02 05:22:10;;;;;;;;;;;;;;;-4.12;83.51;98607.81;5022167;28;20040;-70
2023/12/02 05:24:36;;;;;;;;;;;;;;;-4.13;83.63;98612.31;5000496;28;19936;-72
2023/12/02 05:27:02;;;;;;;;;;;;;;;-4.16;83.61;98612.75;5011814;28;19929;-72
2023/12/02 05:29:30;;;;;;;;;;;;;;;-4.17;83.49;98612.94;4985894;28;20420;-72
2023/12/02 05:31:55;;;;;;;;;;;;;;;-4.20;83.66;98616.88;5036377;28;19951;-72
2023/12/02 05:34:22;;;;;;;;;;;;;;;-4.23;83.50;98629.81;5005788;28;20471;-72
2023/12/02 05:36:48;;;;;;;;;;;;;;;-4.30;83.59;98627.13;5020836;28;19929;-72
2023/12/02 05:39:14;;;;;;;;;;;;;;;-4.33;83.67;98641.69;5021568;28;19933;-72
2023/12/02 05:41:40;;;;;;;;;;;;;;;-4.37;83.72;98637.81;5021069;28;20412;-73
2023/12/02 05:44:06;;;;;;;;;;;;;;;-4.39;83.80;98637.19;5021611;28;19929;-73
2023/12/02 05:46:34;;;;;;;;;;;;;;;-4.37;84.15;98636.97;5023615;28;19935;-72
2023/12/02 05:49:00;;;;;;;;;;;;;;;-4.38;83.79;98644.19;5018595;28;19929;-72
2023/12/02 05:51:26;;;;;;;;;;;;;;;-4.43;83.74;98643.97;5023254;28;20551;-73
2023/12/02 05:53:52;;;;;;;;;;;;;;;-4.39;83.92;98647.88;5022266;28;20011;-73
2023/12/02 05:56:19;;;;;;;;;;;;;;;-4.34;83.73;98652.59;5021516;28;20127;-70
2023/12/02 05:58:45;;;;;;;;;;;;;;;-4.35;83.72;98661.63;5020977;28;19929;-72
2023/12/02 06:01:11;;;;;;;;;;;;;;;-4.32;83.70;98664.69;5022479;28;19929;-73
2023/12/02 06:03:38;;;;;;;;;;;;;;;-4.24;83.92;98660.19;5021997;28;20385;-72
2023/12/02 06:06:09;;;;;;;;;;;;;;;-4.30;83.66;98645.81;4988969;28;19929;-72
2023/12/02 06:08:35;;;;;;;;;;;;;;;-4.24;83.34;98676.22;5013027;28;20368;-71
2023/12/02 06:11:01;;;;;;;;;;;;;;;-4.28;83.76;98665.94;5021680;28;20036;-72
2023/12/02 06:13:27;;;;;;;;;;;;;;;-4.25;83.72;98677.25;5021999;28;20399;-71
2023/12/02 06:15:53;;;;;;;;;;;;;;;-4.20;83.50;98682.78;5005411;28;19929;-71
2023/12/02 06:18:19;;;;;;;;;;;;;;;-4.22;82.97;98693.66;5022319;28;20060;-72
2023/12/02 06:20:46;;;;;;;;;;;;;;;-4.19;83.02;98695.09;5020203;28;19929;-72
2023/12/02 06:23:12;;;;;;;;;;;;;;;-4.19;83.14;98701.28;5021308;28;19929;-72
2023/12/02 06:25:38;;;;;;;;;;;;;;;-4.18;83.21;98708.25;5021484;28;19929;-72
2023/12/02 06:28:04;;;;;;;;;;;;;;;-4.13;83.58;98704.97;5021581;28;20397;-72
2023/12/02 06:30:31;;;;;;;;;;;;;;;-4.04;83.23;98710.94;5023746;28;20142;-70
2023/12/02 06:32:57;;;;;;;;;;;;;;;-3.96;83.13;98715.22;5004838;28;20040;-71
2023/12/02 06:35:23;;;;;;;;;;;;;;;-3.92;82.79;98714.59;5004279;28;20341;-71
2023/12/02 06:37:50;;;;;;;;;;;;;;;-3.90;82.70;98712.56;5017025;28;20351;-71
2023/12/02 06:40:17;;;;;;;;;;;;;;;-3.94;82.55;98708.63;5019980;28;19929;-70
2023/12/02 06:42:43;;;;;;;;;;;;;;;-4.00;82.57;98702.28;5007062;28;19929;-70
2023/12/02 06:45:09;;;;;;;;;;;;;;;-3.97;82.65;98709.06;5021889;28;19995;-70
2023/12/02 06:47:36;;;;;;;;;;;;;;;-4.00;82.74;98702.28;5003730;28;19935;-70
2023/12/02 06:50:02;;;;;;;;;;;;;;;-4.01;83.22;98700.63;5023041;28;20063;-70
2023/12/02 06:52:29;;;;;;;;;;;;;;;-3.91;83.18;98708.22;4987399;28;19943;-70
2023/12/02 06:54:57;;;;;;;;;;;;;;;-3.83;83.24;98704.50;5021445;28;20304;-70
2023/12/02 06:57:23;;;;;;;;;;;;;;;-3.80;82.54;98711.31;5034906;28;19929;-70
2023/12/02 06:59:51;;;;;;;;;;;;;;;-3.90;82.01;98715.22;5013133;28;20327;-70
2023/12/02 07:02:17;;;;;;;;;;;;;;;-3.90;82.52;98717.06;5022093;28;19975;-71
2023/12/02 07:04:45;;;;;;;;;;;;;;;-3.88;82.58;98715.00;5018867;28;20316;-71
2023/12/02 07:07:11;;;;;;;;;;;;;;;-3.83;82.85;98714.38;5022058;28;20355;-70
2023/12/02 07:09:37;;;;;;;;;;;;;;;-3.76;82.74;98725.88;5022052;28;19929;-69
2023/12/02 07:12:05;;;;;;;;;;;;;;;-3.78;82.31;98726.09;5018341;28;20055;-73
2023/12/02 07:14:31;;;;;;;;;;;;;;;-3.73;82.43;98726.28;5006926;28;19940;-73
2023/12/02 07:16:57;;;;;;;;;;;;;;;-3.73;81.77;98738.84;5025453;28;19929;-70
2023/12/02 07:19:23;;;;;;;;;;;;;;;-3.71;81.62;98747.47;5024930;28;19956;-70
2023/12/02 07:21:49;;;;;;;;;;;;;;;-3.68;81.78;98755.06;5022043;28;19944;-70
2023/12/02 07:24:14;;;;;;;;;;;;;;;-3.66;81.95;98762.88;5024479;28;20468;-70
2023/12/02 07:26:40;;;;;;;;;;;;;;;-3.70;82.01;98765.16;5021890;28;19935;-71
2023/12/02 07:29:08;;;;;;;;;;;;;;;-3.67;82.11;98770.06;5011493;28;19929;-70
2023/12/02 07:31:33;;;;;;;;;;;;;;;-3.60;82.04;98764.72;5023857;28;20198;-70
2023/12/02 07:33:59;;;;;;;;;;;;;;;-3.52;81.81;98763.69;5021238;28;19975;-70
2023/12/02 07:36:25;;;;;;;;;;;;;;;-3.50;81.75;98773.16;5024689;28;20032;-70
2023/12/02 07:38:51;;;;;;;;;;;;;;;-3.53;81.50;98773.53;5023738;28;19933;-70
2023/12/02 07:41:17;;;;;;;;;;;;;;;-3.60;81.44;98781.56;5023417;28;20201;-70
2023/12/02 07:43:43;;;;;;;;;;;;;;;-3.56;81.55;98784.66;5021811;28;19929;-70
2023/12/02 07:46:10;;;;;;;;;;;;;;;-3.55;81.33;98794.31;5025074;28;19929;-70
2023/12/02 07:48:36;;;;;;;;;;;;;;;-3.55;81.43;98802.31;5023417;28;19933;-70
2023/12/02 07:51:03;;;;;;;;;;;;;;;-3.61;81.43;98803.97;5024364;28;19936;-70
2023/12/02 07:53:29;;;;;;;;;;;;;;;-3.67;81.55;98804.81;5024492;28;19976;-70
2023/12/02 07:55:55;;;;;;;;;;;;;;;-3.71;81.89;98814.28;5020631;28;19929;-72
2023/12/02 07:58:21;;;;;;;;;;;;;;;-3.66;81.91;98819.81;5008047;28;19929;-72
2023/12/02 08:00:47;;;;;;;;;;;;;;;-3.65;81.67;98834.00;5013340;28;19952;-71
2023/12/02 08:03:15;;;;;;;;;;;;;;;-3.66;81.81;98832.38;5018874;28;19929;-72
2023/12/02 08:05:41;;;;;;;;;;;;;;;-3.48;81.33;98839.75;5022658;28;19935;-72
2023/12/02 08:08:07;;;;;;;;;;;;;;;-3.42;81.32;98842.41;5022418;28;19933;-71
2023/12/02 08:10:33;;;;;;;;;;;;;;;-3.31;80.95;98834.81;5024948;28;19933;-72
2023/12/02 08:12:59;;;;;;;;;;;;;;;-3.30;80.59;98847.94;5023451;28;20387;-72
2023/12/02 08:15:25;;;;;;;;;;;;;;;-3.33;80.14;98847.56;5023730;28;20191;-72
2023/12/02 08:17:53;;;;;;;;;;;;;;;-3.46;80.42;98854.56;5023584;28;19929;-72
2023/12/02 08:20:22;;;;;;;;;;;;;;;-3.54;80.49;98846.72;5023831;28;19929;-72
2023/12/02 08:22:48;;;;;;;;;;;;;;;-3.48;80.55;98848.59;5016675;28;19940;-72
2023/12/02 08:25:14;;;;;;;;;;;;;;;-3.40;80.38;98849.41;5006191;28;19952;-72
2023/12/02 08:27:40;;;;;;;;;;;;;;;-3.33;80.38;98852.91;5000435;28;19929;-72
2023/12/02 08:30:07;;;;;;;;;;;;;;;-3.20;80.44;98852.91;5022871;28;19933;-76
2023/12/02 08:32:33;;;;;;;;;;;;;;;-3.03;80.20;98855.94;5006521;28;19983;-72
2023/12/02 08:34:59;;;;;;;;;;;;;;;-2.87;79.92;98854.69;5023218;28;19929;-72
2023/12/02 08:37:27;;;;;;;;;;;;;;;-2.77;79.64;98856.06;5023944;28;19929;-72
2023/12/02 08:39:53;;;;;;;;;;;;;;;-2.38;78.35;98856.97;5024296;28;19929;-72
2023/12/02 08:42:19;;;;;;;;;;;;;;;-2.00;76.89;98853.47;5023600;28;19944;-72
2023/12/02 08:44:51;;;;;;;;;;;;;;;-1.96;75.64;98853.03;5024117;28;19929;-72
2023/12/02 08:47:17;;;;;;;;;;;;;;;-1.84;75.76;98853.16;5006707;28;19929;-72
2023/12/02 08:49:43;;;;;;;;;;;;;;;-1.10;74.04;98861.41;5024526;28;20313;-70
2023/12/02 08:52:08;;;;;;;;;;;;;;;-0.48;72.79;98857.84;5023320;28;20037;-69
2023/12/02 08:54:36;;;;;;;;;;;;;;;-0.43;72.37;98858.03;5022925;28;20359;-70
2023/12/02 08:57:02;;;;;;;;;;;;;;;-0.93;72.74;98866.25;5024152;28;20447;-70
2023/12/02 08:59:28;;;;;;;;;;;;;;;-1.31;73.86;98874.19;5022896;28;19975;-70
2023/12/02 09:01:54;;;;;;;;;;;;;;;-1.55;74.51;98869.66;5027994;28;20377;-70
2023/12/02 09:04:20;;;;;;;;;;;;;;;-1.13;73.80;98861.06;5012704;28;19930;-70
2023/12/02 09:06:46;;;;;;;;;;;;;;;-1.06;73.08;98872.53;5004495;28;20321;-72
2023/12/02 09:09:12;;;;;;;;;;;;;;;-1.47;73.18;98877.44;5021290;28;19929;-69
2023/12/02 09:11:41;;;;;;;;;;;;;;;-1.80;73.89;98881.19;4988750;28;19933;-72
2023/12/02 09:14:06;;;;;;;;;;;;;;;-2.10;74.20;98868.38;5005920;28;19952;-69
2023/12/02 09:16:32;;;;;;;;;;;;;;;-2.36;74.43;98887.03;5022529;28;19933;-70
2023/12/02 09:18:58;;;;;;;;;;;;;;;-2.64;74.95;98888.16;5025362;28;19975;-69
2023/12/02 09:21:43;;;;;;;;;;;;;;;-2.43;75.33;98891.56;5022510;28;20319;-70
2023/12/02 09:24:31;;;;;;;;;;;;;;;-2.48;74.43;98889.56;5012004;28;20542;-70
2023/12/02 09:26:58;;;;;;;;;;;;;;;-2.31;74.56;98892.56;5020601;28;19936;-73
2023/12/02 09:29:27;;;;;;;;;;;;;;;-2.22;73.51;98870.91;5003335;28;20254;-72
2023/12/02 09:31:53;;;;;;;;;;;;;;;-1.91;73.00;98894.22;5020970;28;19987;-72
2023/12/02 09:34:44;;;;;;;;;;;;;;;-1.46;72.36;98890.63;5004205;28;20371;-72
2023/12/02 09:37:25;;;;;;;;;;;;;;;-1.42;70.58;98888.31;4988056;28;20423;-73
2023/12/02 09:40:14;;;;;;;;;;;;;;;-1.63;71.16;98900.25;5023276;28;19929;-70
2023/12/02 09:42:44;;;;;;;;;;;;;;;-1.71;70.82;98906.69;5040787;28;19929;-70
2023/12/02 09:45:10;;;;;;;;;;;;;;;-1.92;70.67;98914.00;5026065;28;19929;-72
2023/12/02 09:47:40;;;;;;;;;;;;;;;-2.07;71.19;98919.66;5002593;28;19935;-72
2023/12/02 09:50:09;;;;;;;;;;;;;;;-2.12;71.50;98916.78;5016718;28;19929;-72
2023/12/02 09:52:46;;;;;;;;;;;;;;;-2.16;71.23;98913.72;5021574;28;19935;-73
2023/12/02 09:55:15;;;;;;;;;;;;;;;-1.57;70.58;98900.19;5022301;28;19929;-73
2023/12/02 09:57:46;;;;;;;;;;;;;;;-1.33;69.23;98899.59;4999464;28;19929;-70
2023/12/02 10:00:19;;;;;;;;;;;;;;;-0.66;68.02;98900.84;5001321;28;19936;-72
2023/12/02 10:02:57;;;;;;;;;;;;;;;-0.10;65.43;98908.88;5016427;28;19937;-70
2023/12/02 10:05:23;;;;;;;;;;;;;;;0.53;63.40;98907.56;4998826;28;19940;-70
2023/12/02 10:07:59;;;;;;;;;;;;;;;0.77;61.72;98912.16;5007360;28;19933;-70
2023/12/02 10:10:26;;;;;;;;;;;;;;;0.68;62.08;98914.38;5013434;28;19955;-70
2023/12/02 10:13:04;;;;;;;;;;;;;;;1.10;62.31;98906.22;5021047;28;20446;-70
2023/12/02 10:15:32;;;;;;;;;;;;;;;1.76;59.93;98907.91;5022944;28;19939;-69
2023/12/02 10:18:03;;;;;;;;;;;;;;;2.35;58.42;98900.63;5024828;28;20486;-71
2023/12/02 10:20:33;;;;;;;;;;;;;;;3.03;57.17;98903.34;5020231;28;19933;-71
2023/12/02 10:23:08;;;;;;;;;;;;;;;3.62;55.60;98907.41;5010489;28;20600;-72
2023/12/02 10:25:40;;;;;;;;;;;;;;;4.33;53.94;98913.91;5011218;28;19929;-72
2023/12/02 10:28:12;;;;;;;;;;;;;;;5.19;52.39;98913.25;5005248;28;20032;-72
2023/12/02 10:30:42;;;;;;;;;;;;;;;5.88;51.10;98914.19;5002755;28;19983;-72
2023/12/02 10:33:10;;;;;;;;;;;;;;;6.24;50.16;98914.31;5015018;28;20459;-72
2023/12/02 10:35:41;;;;;;;;;;;;;;;6.30;48.29;98919.75;5011195;28;19929;-72
2023/12/02 10:38:13;;;;;;;;;;;;;;;6.45;49.03;98924.41;5018190;28;19975;-72
2023/12/02 10:40:41;;;;;;;;;;;;;;;6.60;48.48;98924.44;5022618;28;19932;-71
2023/12/02 10:43:10;;;;;;;;;;;;;;;6.86;48.18;98926.34;5019903;28;19983;-72
2023/12/02 10:45:40;;;;;;;;;;;;;;;7.04;47.40;98933.94;5018790;28;19929;-72
2023/12/02 10:48:07;;;;;;;;;;;;;;;7.51;46.06;98937.44;5022516;28;19952;-72
2023/12/02 10:50:34;;;;;;;;;;;;;;;7.51;45.79;98940.16;5023422;28;19991;-72
2023/12/02 10:53:01;;;;;;;;;;;;;;;7.18;45.56;98939.66;5020002;28;19944;-71
2023/12/02 10:55:29;;;;;;;;;;;;;;;7.19;45.13;98940.47;5024335;28;20074;-71
2023/12/02 10:57:57;;;;;;;;;;;;;;;6.60;47.19;98954.31;5024342;28;19929;-70
2023/12/02 11:00:23;;;;;;;;;;;;;;;6.17;50.10;98957.19;5017976;28;20342;-71
2023/12/02 11:02:57;;;;;;;;;;;;;;;5.61;50.29;98949.56;4979444;28;19944;-71
2023/12/02 11:05:23;;;;;;;;;;;;;;;3.67;49.21;98950.75;5018675;28;19933;-69
2023/12/02 11:07:51;;;;;;;;;;;;;;;1.86;52.87;98961.19;5022491;28;19929;-69
2023/12/02 11:10:22;;;;;;;;;;;;;;;0.69;56.36;98964.44;5023951;28;19929;-69
2023/12/02 11:12:50;;;;;;;;;;;;;;;0.20;58.58;98973.41;5024013;28;19929;-71
2023/12/02 11:15:20;;;;;;;;;;;;;;;-0.32;57.51;98973.81;5020512;28;20388;-70
2023/12/02 11:17:48;;;;;;;;;;;;;;;-0.65;59.10;98973.13;5021553;28;19929;-70
2023/12/02 11:20:20;;;;;;;;;;;;;;;-0.83;60.23;98973.91;5022744;28;19928;-71
2023/12/02 11:23:06;;;;;;;;;;;;;;;-1.09;61.54;98989.19;5018691;28;19929;-70
2023/12/02 11:25:38;;;;;;;;;;;;;;;-1.22;61.83;98982.06;5006222;28;19936;-69
2023/12/02 11:28:06;;;;;;;;;;;;;;;-1.09;61.24;98981.16;5001991;28;19928;-69
2023/12/02 11:30:40;;;;;;;;;;;;;;;-1.02;61.06;98983.75;5020510;28;19929;-69
2023/12/02 11:33:11;;;;;;;;;;;;;;;-1.14;61.19;98983.66;5022443;28;20016;-69
2023/12/02 11:35:44;;;;;;;;;;;;;;;-1.31;62.07;98970.75;5023207;28;19946;-70
2023/12/02 11:38:14;;;;;;;;;;;;;;;-1.33;62.23;98993.47;5023396;28;20491;-69
2023/12/02 11:40:57;;;;;;;;;;;;;;;-1.50;62.27;99001.22;5003490;28;19933;-69
2023/12/02 11:43:29;;;;;;;;;;;;;;;-1.59;62.75;98993.41;5021496;28;19968;-70
2023/12/02 11:45:56;;;;;;;;;;;;;;;-1.72;62.41;99009.56;5019175;28;20131;-70
2023/12/02 11:48:31;;;;;;;;;;;;;;;-1.84;62.39;99012.09;5001749;28;20174;-69
2023/12/02 11:51:06;;;;;;;;;;;;;;;-1.91;62.65;99019.34;5022599;28;19940;-70
2023/12/02 11:53:50;;;;;;;;;;;;;;;-2.02;62.84;99016.28;5037283;28;19929;-69
2023/12/02 11:56:20;;;;;;;;;;;;;;;-2.03;62.70;99017.34;5008477;28;19935;-71
2023/12/02 11:58:50;;;;;;;;;;;;;;;-1.88;62.35;98992.94;5023854;28;19928;-71
2023/12/02 12:01:25;;;;;;;;;;;;;;;-1.59;61.70;99014.06;5025780;28;19937;-71
2023/12/02 12:04:00;;;;;;;;;;;;;;;-1.40;61.53;99009.63;5026076;28;19933;-71
2023/12/02 12:06:35;;;;;;;;;;;;;;;-1.32;61.51;99012.03;5026351;28;20335;-69
2023/12/02 12:09:08;;;;;;;;;;;;;;;-1.47;61.72;99004.31;5024584;28;19990;-70
2023/12/02 12:11:35;;;;;;;;;;;;;;;-1.66;61.88;99015.94;5024863;28;19955;-69
2023/12/02 12:14:02;;;;;;;;;;;;;;;-1.86;62.27;99028.41;5026437;28;19948;-71
2023/12/02 12:16:28;;;;;;;;;;;;;;;-2.00;62.99;99024.94;4659595;28;10000363;-70
2023/12/02 12:18:54;;;;;;;;;;;;;;;-2.06;63.32;99022.28;4990993;28;19928;-71
2023/12/02 12:21:23;;;;;;;;;;;;;;;-2.12;63.56;99031.19;5020080;28;19940;-71
2023/12/02 12:23:50;;;;;;;;;;;;;;;-2.16;63.64;99025.41;5002739;28;19937;-69
2023/12/02 12:26:16;;;;;;;;;;;;;;;-2.06;63.09;99038.34;5017968;28;19929;-71
2023/12/02 12:28:42;;;;;;;;;;;;;;;-1.97;62.74;99036.28;5019466;28;19983;-71
2023/12/02 12:31:11;;;;;;;;;;;;;;;-2.05;62.53;99040.84;5025700;28;20020;-71
2023/12/02 12:33:38;;;;;;;;;;;;;;;-2.19;62.69;99037.34;5008789;28;19929;-71
2023/12/02 12:36:05;;;;;;;;;;;;;;;-2.31;63.13;99036.38;5004851;28;19929;-71
2023/12/02 12:38:30;;;;;;;;;;;;;;;-2.43;63.58;99038.84;5025116;28;20028;-71
2023/12/02 12:40:58;;;;;;;;;;;;;;;-2.51;64.16;99044.44;5027711;28;20391;-71
2023/12/02 12:43:24;;;;;;;;;;;;;;;-2.60;64.18;99052.66;5022895;28;19938;-71
2023/12/02 12:45:53;;;;;;;;;;;;;;;-2.71;64.41;99059.47;5026603;28;19940;-71
2023/12/02 12:48:23;;;;;;;;;;;;;;;-2.79;65.19;99050.81;5024913;28;20324;-71
2023/12/02 12:50:50;;;;;;;;;;;;;;;-2.82;65.35;99052.03;5006838;28;19929;-71